Language: 


Des rapports , des résumés tant et plus, au choix de chacun....


Données statistiques de la station
Quotidien Rapport Février 27, 2017 Unités:  les deux    Anglais   Métrique
« Précédent Jour
Suivant Jour »
Quotidien Hebdomadaire Mensuel Annuel Actuel
  Haut: Bas: Moyen:
Température: TemperatureC °F /  -17.8 °C 0.0 °F /  -17.8 °C 8.4 °F /  -13.1 °C
Pt de rosée: DewpointC °F /  -17.8 °C 2.1 °F /  -16.6 °C 5.8 °F /  -14.6 °C
Humidité: Humidity % 0 % 83 %
Vitesse du vent: WindSpeedKMH mph /  0 km/h - 17.9 mph /  28.8 km/h
Rafales: WindSpeedGustKMH mph /  0 km/h - -
Vent:- - SSW
Pression: PressurehPa in /  0 hPa 988.0 in /  33453.7 hPa -
Précipitation: 15.7 in /  398.78 mm    
Historical Graphs
 
 
Données statistiques pour Février 27, 2017
Heure Température Point de rosée Pression Vent Vitesse du vent Refales Humidité Pluie (taux horaire)
TemperatureC °F /  -17.8 °C DewpointC °F /  -17.8 °C PressurehPa in /  0 hPa Calm     Humidity % HourlyPrecipMM in /  0 mm
00:01 10.6 °F /  -11.9 °C 8.8 °F /  -12.9 °C 1006.0 in /  34063.2 hPa WSW 10.1 mph /  16.3 km/h 16.6 mph /  26.7 km/h 89 % 0.0 in /  0 mm
00:06 10.7 °F /  -11.8 °C 8.8 °F /  -12.9 °C 1006.0 in /  34063.2 hPa SW 13.0 mph /  20.9 km/h 20.1 mph /  32.3 km/h 88 % 0.0 in /  0 mm
00:11 10.7 °F /  -11.8 °C 8.4 °F /  -13.1 °C 1006.0 in /  34063.2 hPa SW 20.6 mph /  33.2 km/h 20.6 mph /  33.2 km/h 86 % 0.0 in /  0 mm
00:16 10.8 °F /  -11.8 °C 8.2 °F /  -13.2 °C 1006.0 in /  34063.2 hPa SW 10.1 mph /  16.3 km/h 20.6 mph /  33.2 km/h 84 % 0.0 in /  0 mm
00:21 10.8 °F /  -11.8 °C 8.0 °F /  -13.3 °C 1006.0 in /  34063.2 hPa WSW 16.3 mph /  26.2 km/h 19.5 mph /  31.4 km/h 83 % 0.0 in /  0 mm
00:26 10.8 °F /  -11.8 °C 8.0 °F /  -13.3 °C 1006.0 in /  34063.2 hPa SW 13.7 mph /  22 km/h 17.7 mph /  28.5 km/h 83 % 0.0 in /  0 mm
00:31 10.8 °F /  -11.8 °C 7.8 °F /  -13.4 °C 1006.0 in /  34063.2 hPa SW 14.0 mph /  22.5 km/h 21.6 mph /  34.8 km/h 82 % 0.0 in /  0 mm
00:36 10.8 °F /  -11.8 °C 7.7 °F /  -13.5 °C 1006.0 in /  34063.2 hPa SW 9.3 mph /  15 km/h 21.6 mph /  34.8 km/h 81 % 0.0 in /  0 mm
00:41 10.8 °F /  -11.8 °C 7.7 °F /  -13.5 °C 1006.0 in /  34063.2 hPa SSW 13.0 mph /  20.9 km/h 16.9 mph /  27.2 km/h 81 % 0.0 in /  0 mm
00:46 10.8 °F /  -11.8 °C 7.4 °F /  -13.7 °C 1006.0 in /  34063.2 hPa SSW 9.3 mph /  15 km/h 16.9 mph /  27.2 km/h 80 % 0.0 in /  0 mm
00:51 10.8 °F /  -11.8 °C 7.4 °F /  -13.7 °C 1006.0 in /  34063.2 hPa SSW 16.6 mph /  26.7 km/h 16.6 mph /  26.7 km/h 80 % 0.0 in /  0 mm
00:56 10.8 °F /  -11.8 °C 7.3 °F /  -13.7 °C 1005.0 in /  34029.3 hPa West 9.0 mph /  14.5 km/h 17.2 mph /  27.7 km/h 79 % 0.0 in /  0 mm
01:01 10.8 °F /  -11.8 °C 7.3 °F /  -13.7 °C 1005.0 in /  34029.3 hPa SW 6.1 mph /  9.8 km/h 17.2 mph /  27.7 km/h 79 % 0.0 in /  0 mm
01:06 10.8 °F /  -11.8 °C 7.3 °F /  -13.7 °C 1005.0 in /  34029.3 hPa SW 16.9 mph /  27.2 km/h 17.7 mph /  28.5 km/h 79 % 0.0 in /  0 mm
01:11 10.8 °F /  -11.8 °C 7.1 °F /  -13.8 °C 1005.0 in /  34029.3 hPa SSW 13.0 mph /  20.9 km/h 17.7 mph /  28.5 km/h 78 % 0.0 in /  0 mm
01:16 10.7 °F /  -11.8 °C 7.0 °F /  -13.9 °C 1005.0 in /  34029.3 hPa SW 17.7 mph /  28.5 km/h 19.5 mph /  31.4 km/h 78 % 0.0 in /  0 mm
01:21 10.8 °F /  -11.8 °C 6.7 °F /  -14.1 °C 1005.0 in /  34029.3 hPa SW 21.2 mph /  34.1 km/h 24.8 mph /  39.9 km/h 76 % 0.0 in /  0 mm
01:26 10.8 °F /  -11.8 °C 6.5 °F /  -14.2 °C 1005.0 in /  34029.3 hPa SSW 21.2 mph /  34.1 km/h 24.8 mph /  39.9 km/h 75 % 0.0 in /  0 mm
01:31 10.8 °F /  -11.8 °C 6.5 °F /  -14.2 °C 1005.0 in /  34029.3 hPa SSW 20.9 mph /  33.6 km/h 24.8 mph /  39.9 km/h 75 % 0.0 in /  0 mm
01:36 10.7 °F /  -11.8 °C 6.4 °F /  -14.2 °C 1005.0 in /  34029.3 hPa SW 17.2 mph /  27.7 km/h 21.2 mph /  34.1 km/h 75 % 0.0 in /  0 mm
01:41 10.7 °F /  -11.8 °C 6.4 °F /  -14.2 °C 1005.0 in /  34029.3 hPa WSW 11.9 mph /  19.2 km/h 21.2 mph /  34.1 km/h 75 % 0.0 in /  0 mm
01:46 10.7 °F /  -11.8 °C 6.4 °F /  -14.2 °C 1005.0 in /  34029.3 hPa SSW 10.5 mph /  16.9 km/h 24.5 mph /  39.4 km/h 75 % 0.0 in /  0 mm
01:52 10.6 °F /  -11.9 °C 6.3 °F /  -14.3 °C 1005.0 in /  34029.3 hPa WSW 16.3 mph /  26.2 km/h 24.5 mph /  39.4 km/h 75 % 0.0 in /  0 mm
01:57 10.6 °F /  -11.9 °C 6.3 °F /  -14.3 °C 1005.0 in /  34029.3 hPa SW 10.1 mph /  16.3 km/h 17.7 mph /  28.5 km/h 75 % 0.0 in /  0 mm
02:02 0.0 °F /  -17.8 °C 6.2 °F /  -14.3 °C 1005.0 in /  34029.3 hPa SSW 10.1 mph /  16.3 km/h 16.3 mph /  26.2 km/h 0 % 0.0 in /  0 mm
02:07 10.3 °F /  -12.1 °C 6.2 °F /  -14.3 °C 1005.0 in /  34029.3 hPa SSW 5.8 mph /  9.3 km/h 16.3 mph /  26.2 km/h 76 % 0.0 in /  0 mm
02:12 10.2 °F /  -12.1 °C 6.2 °F /  -14.3 °C 1005.0 in /  34029.3 hPa South 14.0 mph /  22.5 km/h 15.4 mph /  24.8 km/h 76 % 0.0 in /  0 mm
02:17 10.1 °F /  -12.2 °C 6.2 °F /  -14.3 °C 1005.0 in /  34029.3 hPa SSW 7.2 mph /  11.6 km/h 15.4 mph /  24.8 km/h 77 % 0.0 in /  0 mm
02:22 10.0 °F /  -12.2 °C 6.3 °F /  -14.3 °C 1005.0 in /  34029.3 hPa SSW 14.0 mph /  22.5 km/h 14.0 mph /  22.5 km/h 78 % 0.0 in /  0 mm
02:27 9.9 °F /  -12.3 °C 6.4 °F /  -14.2 °C 1005.0 in /  34029.3 hPa South 13.0 mph /  20.9 km/h 17.2 mph /  27.7 km/h 79 % 0.0 in /  0 mm
02:32 9.9 °F /  -12.3 °C 6.4 °F /  -14.2 °C 1005.0 in /  34029.3 hPa South 12.6 mph /  20.3 km/h 18.0 mph /  29 km/h 79 % 0.0 in /  0 mm
02:37 9.9 °F /  -12.3 °C 6.6 °F /  -14.1 °C 1003.9 in /  33992.1 hPa SSW 7.9 mph /  12.7 km/h 19.1 mph /  30.7 km/h 80 % 0.0 in /  0 mm
02:42 9.8 °F /  -12.3 °C 6.7 °F /  -14.1 °C 1003.9 in /  33992.1 hPa SW 5.5 mph /  8.9 km/h 19.1 mph /  30.7 km/h 81 % 0.0 in /  0 mm
02:47 9.9 °F /  -12.3 °C 6.8 °F /  -14 °C 1003.9 in /  33992.1 hPa SW 12.6 mph /  20.3 km/h 16.3 mph /  26.2 km/h 81 % 0.0 in /  0 mm
02:52 9.9 °F /  -12.3 °C 6.9 °F /  -13.9 °C 1003.9 in /  33992.1 hPa SW 13.7 mph /  22 km/h 15.4 mph /  24.8 km/h 82 % 0.0 in /  0 mm
02:57 9.9 °F /  -12.3 °C 6.8 °F /  -14 °C 1003.9 in /  33992.1 hPa SW 13.7 mph /  22 km/h 20.1 mph /  32.3 km/h 81 % 0.0 in /  0 mm
03:02 9.9 °F /  -12.3 °C 6.8 °F /  -14 °C 1003.9 in /  33992.1 hPa SSW 12.2 mph /  19.6 km/h 20.6 mph /  33.2 km/h 81 % 0.0 in /  0 mm
03:07 10.0 °F /  -12.2 °C 6.5 °F /  -14.2 °C 1003.9 in /  33992.1 hPa SSW 14.0 mph /  22.5 km/h 19.8 mph /  31.9 km/h 79 % 0.0 in /  0 mm
03:12 10.0 °F /  -12.2 °C 6.3 °F /  -14.3 °C 1003.9 in /  33992.1 hPa SSW 11.9 mph /  19.2 km/h 20.1 mph /  32.3 km/h 78 % 0.0 in /  0 mm
03:17 10.0 °F /  -12.2 °C 6.2 °F /  -14.3 °C 1003.9 in /  33992.1 hPa SSW 24.5 mph /  39.4 km/h 26.2 mph /  42.2 km/h 77 % 0.0 in /  0 mm
03:22 10.0 °F /  -12.2 °C 5.9 °F /  -14.5 °C 1002.9 in /  33958.2 hPa SW 13.0 mph /  20.9 km/h 26.2 mph /  42.2 km/h 76 % 0.0 in /  0 mm
03:27 10.0 °F /  -12.2 °C 5.9 °F /  -14.5 °C 1002.9 in /  33958.2 hPa WSW 21.2 mph /  34.1 km/h 24.8 mph /  39.9 km/h 76 % 0.0 in /  0 mm
03:32 9.9 °F /  -12.3 °C 5.7 °F /  -14.6 °C 1002.9 in /  33958.2 hPa SSW 19.5 mph /  31.4 km/h 24.8 mph /  39.9 km/h 75 % 0.0 in /  0 mm
03:37 9.9 °F /  -12.3 °C 5.7 °F /  -14.6 °C 1002.9 in /  33958.2 hPa SSW 17.2 mph /  27.7 km/h 24.8 mph /  39.9 km/h 75 % 0.0 in /  0 mm
03:42 9.8 °F /  -12.3 °C 5.6 °F /  -14.7 °C 1002.9 in /  33958.2 hPa SW 19.8 mph /  31.9 km/h 23.0 mph /  37 km/h 75 % 0.0 in /  0 mm
03:47 9.8 °F /  -12.3 °C 5.8 °F /  -14.6 °C 1002.9 in /  33958.2 hPa SW 16.3 mph /  26.2 km/h 23.0 mph /  37 km/h 76 % 0.0 in /  0 mm
03:52 9.7 °F /  -12.4 °C 5.7 °F /  -14.6 °C 1001.9 in /  33924.3 hPa South 16.9 mph /  27.2 km/h 20.1 mph /  32.3 km/h 76 % 0.0 in /  0 mm
03:57 9.7 °F /  -12.4 °C 5.7 °F /  -14.6 °C 1001.9 in /  33924.3 hPa SSW 16.9 mph /  27.2 km/h 20.1 mph /  32.3 km/h 76 % 0.0 in /  0 mm
04:02 9.7 °F /  -12.4 °C 5.7 °F /  -14.6 °C 1001.9 in /  33924.3 hPa SSW 10.1 mph /  16.3 km/h 19.8 mph /  31.9 km/h 76 % 0.0 in /  0 mm
04:07 9.7 °F /  -12.4 °C 5.7 °F /  -14.6 °C 1001.9 in /  33924.3 hPa SSW 13.7 mph /  22 km/h 19.8 mph /  31.9 km/h 76 % 0.0 in /  0 mm
04:12 9.6 °F /  -12.4 °C 5.6 °F /  -14.7 °C 1001.9 in /  33924.3 hPa SSW 13.7 mph /  22 km/h 21.2 mph /  34.1 km/h 76 % 0.0 in /  0 mm
04:17 9.6 °F /  -12.4 °C 5.8 °F /  -14.6 °C 1001.9 in /  33924.3 hPa SSW 15.8 mph /  25.4 km/h 21.2 mph /  34.1 km/h 77 % 0.0 in /  0 mm
04:22 9.6 °F /  -12.4 °C 5.8 °F /  -14.6 °C 1002.9 in /  33958.2 hPa SSW 17.2 mph /  27.7 km/h 21.2 mph /  34.1 km/h 77 % 0.0 in /  0 mm
04:27 9.7 °F /  -12.4 °C 5.9 °F /  -14.5 °C 1002.9 in /  33958.2 hPa SSW 12.2 mph /  19.6 km/h 21.2 mph /  34.1 km/h 77 % 0.0 in /  0 mm
04:32 9.7 °F /  -12.4 °C 6.1 °F /  -14.4 °C 1002.9 in /  33958.2 hPa South 9.3 mph /  15 km/h 20.6 mph /  33.2 km/h 78 % 0.0 in /  0 mm
04:37 9.8 °F /  -12.3 °C 5.9 °F /  -14.5 °C 1001.9 in /  33924.3 hPa SSW 9.3 mph /  15 km/h 20.1 mph /  32.3 km/h 77 % 0.0 in /  0 mm
04:42 9.8 °F /  -12.3 °C 5.9 °F /  -14.5 °C 1001.9 in /  33924.3 hPa South 9.7 mph /  15.6 km/h 19.5 mph /  31.4 km/h 77 % 0.0 in /  0 mm
04:47 9.8 °F /  -12.3 °C 5.9 °F /  -14.5 °C 1001.9 in /  33924.3 hPa SSW 17.7 mph /  28.5 km/h 23.0 mph /  37 km/h 77 % 0.0 in /  0 mm
04:52 9.8 °F /  -12.3 °C 5.9 °F /  -14.5 °C 1001.9 in /  33924.3 hPa SSW 13.0 mph /  20.9 km/h 23.3 mph /  37.5 km/h 77 % 0.0 in /  0 mm
04:57 9.8 °F /  -12.3 °C 5.9 °F /  -14.5 °C 1001.9 in /  33924.3 hPa SSW 11.9 mph /  19.2 km/h 23.3 mph /  37.5 km/h 77 % 0.0 in /  0 mm
05:02 9.9 °F /  -12.3 °C 6.1 °F /  -14.4 °C 1001.9 in /  33924.3 hPa South 15.8 mph /  25.4 km/h 33.8 mph /  54.4 km/h 77 % 0.0 in /  0 mm
05:07 9.9 °F /  -12.3 °C 6.1 °F /  -14.4 °C 1001.9 in /  33924.3 hPa SSW 16.9 mph /  27.2 km/h 33.8 mph /  54.4 km/h 77 % 0.0 in /  0 mm
05:12 9.9 °F /  -12.3 °C 6.1 °F /  -14.4 °C 1001.9 in /  33924.3 hPa SSW 15.8 mph /  25.4 km/h 28.0 mph /  45.1 km/h 77 % 0.0 in /  0 mm
05:17 9.9 °F /  -12.3 °C 6.1 °F /  -14.4 °C 1001.9 in /  33924.3 hPa WSW 16.3 mph /  26.2 km/h 21.2 mph /  34.1 km/h 77 % 0.0 in /  0 mm
05:22 9.9 °F /  -12.3 °C 6.1 °F /  -14.4 °C 1000.9 in /  33890.5 hPa SW 16.9 mph /  27.2 km/h 21.2 mph /  34.1 km/h 77 % 0.0 in /  0 mm
05:27 9.8 °F /  -12.3 °C 5.9 °F /  -14.5 °C 1000.9 in /  33890.5 hPa SW 12.6 mph /  20.3 km/h 20.6 mph /  33.2 km/h 77 % 0.0 in /  0 mm
05:32 9.8 °F /  -12.3 °C 5.9 °F /  -14.5 °C 1000.9 in /  33890.5 hPa SSW 17.2 mph /  27.7 km/h 20.9 mph /  33.6 km/h 77 % 0.0 in /  0 mm
05:37 9.7 °F /  -12.4 °C 6.1 °F /  -14.4 °C 1000.9 in /  33890.5 hPa SSW 15.8 mph /  25.4 km/h 20.9 mph /  33.6 km/h 78 % 0.0 in /  0 mm
05:42 9.7 °F /  -12.4 °C 5.9 °F /  -14.5 °C 1000.9 in /  33890.5 hPa SSW 11.9 mph /  19.2 km/h 25.6 mph /  41.2 km/h 77 % 0.0 in /  0 mm
05:47 9.7 °F /  -12.4 °C 5.9 °F /  -14.5 °C 1000.9 in /  33890.5 hPa SSW 16.6 mph /  26.7 km/h 25.6 mph /  41.2 km/h 77 % 0.0 in /  0 mm
05:52 9.6 °F /  -12.4 °C 5.9 °F /  -14.5 °C 1000.9 in /  33890.5 hPa SW 16.9 mph /  27.2 km/h 27.4 mph /  44.1 km/h 78 % 0.0 in /  0 mm
05:57 9.6 °F /  -12.4 °C 5.9 °F /  -14.5 °C 1000.9 in /  33890.5 hPa SSW 13.7 mph /  22 km/h 30.9 mph /  49.7 km/h 78 % 0.0 in /  0 mm
06:02 9.8 °F /  -12.3 °C 5.9 °F /  -14.5 °C 1000.9 in /  33890.5 hPa SSW 23.8 mph /  38.3 km/h 31.4 mph /  50.5 km/h 77 % 0.0 in /  0 mm
06:07 9.8 °F /  -12.3 °C 5.9 °F /  -14.5 °C 1000.9 in /  33890.5 hPa SW 18.3 mph /  29.5 km/h 31.4 mph /  50.5 km/h 77 % 0.0 in /  0 mm
06:12 9.8 °F /  -12.3 °C 5.9 °F /  -14.5 °C 1000.9 in /  33890.5 hPa South 11.9 mph /  19.2 km/h 24.8 mph /  39.9 km/h 77 % 0.0 in /  0 mm
06:17 9.8 °F /  -12.3 °C 5.8 °F /  -14.6 °C 1000.9 in /  33890.5 hPa WSW 14.0 mph /  22.5 km/h 28.0 mph /  45.1 km/h 76 % 0.0 in /  0 mm
06:22 9.8 °F /  -12.3 °C 5.8 °F /  -14.6 °C 1000.9 in /  33890.5 hPa South 15.8 mph /  25.4 km/h 28.0 mph /  45.1 km/h 76 % 0.0 in /  0 mm
06:27 9.9 °F /  -12.3 °C 5.7 °F /  -14.6 °C 1000.9 in /  33890.5 hPa SSW 16.3 mph /  26.2 km/h 27.4 mph /  44.1 km/h 75 % 0.0 in /  0 mm
06:32 9.9 °F /  -12.3 °C 5.7 °F /  -14.6 °C 1000.9 in /  33890.5 hPa SSW 19.8 mph /  31.9 km/h 27.4 mph /  44.1 km/h 75 % 0.0 in /  0 mm
06:37 9.9 °F /  -12.3 °C 5.5 °F /  -14.7 °C 1000.9 in /  33890.5 hPa SSW 23.3 mph /  37.5 km/h 24.5 mph /  39.4 km/h 74 % 0.0 in /  0 mm
06:42 9.8 °F /  -12.3 °C 5.4 °F /  -14.8 °C 1000.9 in /  33890.5 hPa SSW 32.3 mph /  52 km/h 33.5 mph /  53.9 km/h 74 % 0.0 in /  0 mm
06:47 9.8 °F /  -12.3 °C 5.2 °F /  -14.9 °C 1000.9 in /  33890.5 hPa SW 11.6 mph /  18.7 km/h 33.5 mph /  53.9 km/h 73 % 0.0 in /  0 mm
06:52 9.8 °F /  -12.3 °C 5.2 °F /  -14.9 °C 999.9 in /  33856.6 hPa SSW 13.7 mph /  22 km/h 30.9 mph /  49.7 km/h 73 % 0.0 in /  0 mm
06:57 9.8 °F /  -12.3 °C 5.2 °F /  -14.9 °C 999.9 in /  33856.6 hPa South 14.3 mph /  23 km/h 30.9 mph /  49.7 km/h 73 % 0.0 in /  0 mm
07:02 9.8 °F /  -12.3 °C 5.2 °F /  -14.9 °C 999.9 in /  33856.6 hPa South 19.1 mph /  30.7 km/h 27.4 mph /  44.1 km/h 73 % 0.0 in /  0 mm
07:07 9.8 °F /  -12.3 °C 5.2 °F /  -14.9 °C 999.9 in /  33856.6 hPa South 10.5 mph /  16.9 km/h 28.0 mph /  45.1 km/h 73 % 0.0 in /  0 mm
07:12 9.8 °F /  -12.3 °C 5.4 °F /  -14.8 °C 999.9 in /  33856.6 hPa South 17.7 mph /  28.5 km/h 28.0 mph /  45.1 km/h 74 % 0.0 in /  0 mm
07:17 9.8 °F /  -12.3 °C 5.2 °F /  -14.9 °C 999.9 in /  33856.6 hPa SSW 14.0 mph /  22.5 km/h 24.8 mph /  39.9 km/h 73 % 0.0 in /  0 mm
07:22 9.8 °F /  -12.3 °C 5.2 °F /  -14.9 °C 998.9 in /  33822.8 hPa SW 14.0 mph /  22.5 km/h 26.2 mph /  42.2 km/h 73 % 0.0 in /  0 mm
07:27 9.8 °F /  -12.3 °C 5.2 °F /  -14.9 °C 998.9 in /  33822.8 hPa South 19.5 mph /  31.4 km/h 27.7 mph /  44.6 km/h 73 % 0.0 in /  0 mm
07:32 9.8 °F /  -12.3 °C 5.2 °F /  -14.9 °C 998.9 in /  33822.8 hPa SSW 9.7 mph /  15.6 km/h 27.7 mph /  44.6 km/h 73 % 0.0 in /  0 mm
07:37 9.8 °F /  -12.3 °C 5.2 °F /  -14.9 °C 997.9 in /  33788.9 hPa SSW 15.8 mph /  25.4 km/h 28.5 mph /  45.9 km/h 73 % 0.0 in /  0 mm
07:42 9.9 °F /  -12.3 °C 5.3 °F /  -14.8 °C 997.9 in /  33788.9 hPa SSW 14.0 mph /  22.5 km/h 28.5 mph /  45.9 km/h 73 % 0.0 in /  0 mm
07:47 9.9 °F /  -12.3 °C 5.3 °F /  -14.8 °C 997.9 in /  33788.9 hPa SSW 20.1 mph /  32.3 km/h 27.4 mph /  44.1 km/h 73 % 0.0 in /  0 mm
07:52 9.9 °F /  -12.3 °C 5.3 °F /  -14.8 °C 998.9 in /  33822.8 hPa South 14.0 mph /  22.5 km/h 32.0 mph /  51.5 km/h 73 % 0.0 in /  0 mm
07:57 9.9 °F /  -12.3 °C 5.3 °F /  -14.8 °C 998.9 in /  33822.8 hPa SSW 9.0 mph /  14.5 km/h 32.0 mph /  51.5 km/h 73 % 0.0 in /  0 mm
08:02 9.9 °F /  -12.3 °C 5.1 °F /  -14.9 °C 998.9 in /  33822.8 hPa South 17.7 mph /  28.5 km/h 27.7 mph /  44.6 km/h 72 % 0.0 in /  0 mm
08:07 9.9 °F /  -12.3 °C 5.3 °F /  -14.8 °C 998.9 in /  33822.8 hPa SSW 17.2 mph /  27.7 km/h 27.7 mph /  44.6 km/h 73 % 0.0 in /  0 mm
08:12 9.9 °F /  -12.3 °C 5.3 °F /  -14.8 °C 998.9 in /  33822.8 hPa South 7.6 mph /  12.2 km/h 24.5 mph /  39.4 km/h 73 % 0.0 in /  0 mm
08:17 9.9 °F /  -12.3 °C 5.3 °F /  -14.8 °C 998.9 in /  33822.8 hPa SSW 11.9 mph /  19.2 km/h 32.0 mph /  51.5 km/h 73 % 0.0 in /  0 mm
08:22 9.9 °F /  -12.3 °C 5.1 °F /  -14.9 °C 998.9 in /  33822.8 hPa SSW 15.1 mph /  24.3 km/h 32.0 mph /  51.5 km/h 72 % 0.0 in /  0 mm
08:27 10.0 °F /  -12.2 °C 5.2 °F /  -14.9 °C 998.9 in /  33822.8 hPa SSW 19.5 mph /  31.4 km/h 29.1 mph /  46.8 km/h 72 % 0.0 in /  0 mm
08:32 10.0 °F /  -12.2 °C 5.2 °F /  -14.9 °C 998.9 in /  33822.8 hPa SSW 15.8 mph /  25.4 km/h 29.1 mph /  46.8 km/h 72 % 0.0 in /  0 mm
08:37 10.0 °F /  -12.2 °C 5.2 °F /  -14.9 °C 998.9 in /  33822.8 hPa SSW 23.3 mph /  37.5 km/h 29.1 mph /  46.8 km/h 72 % 0.0 in /  0 mm
08:42 10.0 °F /  -12.2 °C 5.4 °F /  -14.8 °C 998.9 in /  33822.8 hPa SW 16.6 mph /  26.7 km/h 34.3 mph /  55.2 km/h 73 % 0.0 in /  0 mm
08:47 10.0 °F /  -12.2 °C 5.4 °F /  -14.8 °C 998.9 in /  33822.8 hPa SSW 27.4 mph /  44.1 km/h 37.8 mph /  60.8 km/h 73 % 0.0 in /  0 mm
08:52 10.0 °F /  -12.2 °C 5.4 °F /  -14.8 °C 998.9 in /  33822.8 hPa SSW 16.3 mph /  26.2 km/h 37.8 mph /  60.8 km/h 73 % 0.0 in /  0 mm
08:57 9.9 °F /  -12.3 °C 5.3 °F /  -14.8 °C 998.9 in /  33822.8 hPa SSW 28.5 mph /  45.9 km/h 28.5 mph /  45.9 km/h 73 % 0.0 in /  0 mm
09:02 9.9 °F /  -12.3 °C 5.3 °F /  -14.8 °C 998.9 in /  33822.8 hPa South 17.2 mph /  27.7 km/h 28.5 mph /  45.9 km/h 73 % 0.0 in /  0 mm
09:07 9.9 °F /  -12.3 °C 5.3 °F /  -14.8 °C 997.9 in /  33788.9 hPa SSW 21.2 mph /  34.1 km/h 28.5 mph /  45.9 km/h 73 % 0.0 in /  0 mm
09:12 10.0 °F /  -12.2 °C 5.6 °F /  -14.7 °C 997.9 in /  33788.9 hPa SSW 12.2 mph /  19.6 km/h 31.7 mph /  51 km/h 74 % 0.0 in /  0 mm
09:17 10.0 °F /  -12.2 °C 5.6 °F /  -14.7 °C 997.9 in /  33788.9 hPa South 17.7 mph /  28.5 km/h 31.7 mph /  51 km/h 74 % 0.0 in /  0 mm
09:22 10.0 °F /  -12.2 °C 5.6 °F /  -14.7 °C 997.9 in /  33788.9 hPa South 11.9 mph /  19.2 km/h 24.8 mph /  39.9 km/h 74 % 0.0 in /  0 mm
09:27 10.0 °F /  -12.2 °C 5.6 °F /  -14.7 °C 997.9 in /  33788.9 hPa SSW 22.7 mph /  36.5 km/h 24.5 mph /  39.4 km/h 74 % 0.0 in /  0 mm
09:32 10.0 °F /  -12.2 °C 5.6 °F /  -14.7 °C 997.9 in /  33788.9 hPa SSW 20.9 mph /  33.6 km/h 36.0 mph /  57.9 km/h 74 % 0.0 in /  0 mm
09:37 10.0 °F /  -12.2 °C 5.6 °F /  -14.7 °C 997.9 in /  33788.9 hPa South 10.5 mph /  16.9 km/h 36.7 mph /  59.1 km/h 74 % 0.0 in /  0 mm
09:42 10.0 °F /  -12.2 °C 5.8 °F /  -14.6 °C 997.9 in /  33788.9 hPa SW 15.8 mph /  25.4 km/h 36.7 mph /  59.1 km/h 75 % 0.0 in /  0 mm
09:47 10.0 °F /  -12.2 °C 5.8 °F /  -14.6 °C 997.9 in /  33788.9 hPa SW 19.5 mph /  31.4 km/h 35.2 mph /  56.6 km/h 75 % 0.0 in /  0 mm
09:52 9.9 °F /  -12.3 °C 6.2 °F /  -14.3 °C 997.9 in /  33788.9 hPa SSW 27.4 mph /  44.1 km/h 35.2 mph /  56.6 km/h 78 % 0.0 in /  0 mm
09:57 9.7 °F /  -12.4 °C 6.6 °F /  -14.1 °C 997.9 in /  33788.9 hPa SW 13.0 mph /  20.9 km/h 27.4 mph /  44.1 km/h 81 % 0.0 in /  0 mm
10:02 9.6 °F /  -12.4 °C 6.7 °F /  -14.1 °C 997.9 in /  33788.9 hPa WSW 10.5 mph /  16.9 km/h 28.5 mph /  45.9 km/h 82 % 0.0 in /  0 mm
10:07 9.6 °F /  -12.4 °C 6.8 °F /  -14 °C 996.8 in /  33751.6 hPa South 17.2 mph /  27.7 km/h 28.5 mph /  45.9 km/h 83 % 0.0 in /  0 mm
10:12 9.5 °F /  -12.5 °C 6.9 °F /  -13.9 °C 996.8 in /  33751.6 hPa SSW 16.6 mph /  26.7 km/h 24.8 mph /  39.9 km/h 84 % 0.0 in /  0 mm
10:17 9.5 °F /  -12.5 °C 7.1 °F /  -13.8 °C 996.8 in /  33751.6 hPa SSW 16.9 mph /  27.2 km/h 27.7 mph /  44.6 km/h 85 % 0.0 in /  0 mm
10:22 9.5 °F /  -12.5 °C 7.3 °F /  -13.7 °C 996.8 in /  33751.6 hPa SSW 13.7 mph /  22 km/h 27.7 mph /  44.6 km/h 86 % 0.3 in /  7.62 mm
10:27 9.4 °F /  -12.6 °C 7.3 °F /  -13.7 °C 996.8 in /  33751.6 hPa SW 12.6 mph /  20.3 km/h 23.8 mph /  38.3 km/h 87 % 0.3 in /  7.62 mm
10:32 9.5 °F /  -12.5 °C 7.4 °F /  -13.7 °C 996.8 in /  33751.6 hPa SSW 13.0 mph /  20.9 km/h 21.2 mph /  34.1 km/h 87 % 0.3 in /  7.62 mm
10:37 9.5 °F /  -12.5 °C 7.6 °F /  -13.6 °C 996.8 in /  33751.6 hPa South 9.3 mph /  15 km/h 22.7 mph /  36.5 km/h 88 % 0.5 in /  12.7 mm
10:42 9.4 °F /  -12.6 °C 7.7 °F /  -13.5 °C 996.8 in /  33751.6 hPa SSW 9.7 mph /  15.6 km/h 23.3 mph /  37.5 km/h 89 % 0.5 in /  12.7 mm
10:47 9.4 °F /  -12.6 °C 7.8 °F /  -13.4 °C 996.8 in /  33751.6 hPa SSW 20.1 mph /  32.3 km/h 28.5 mph /  45.9 km/h 90 % 0.5 in /  12.7 mm
10:52 9.3 °F /  -12.6 °C 7.9 °F /  -13.4 °C 996.8 in /  33751.6 hPa South 16.6 mph /  26.7 km/h 28.5 mph /  45.9 km/h 91 % 1.0 in /  25.4 mm
10:57 9.3 °F /  -12.6 °C 8.1 °F /  -13.3 °C 996.8 in /  33751.6 hPa SSW 17.7 mph /  28.5 km/h 24.8 mph /  39.9 km/h 92 % 1.8 in /  45.72 mm
11:02 9.2 °F /  -12.7 °C 8.1 °F /  -13.3 °C 996.8 in /  33751.6 hPa South 19.5 mph /  31.4 km/h 24.8 mph /  39.9 km/h 93 % 2.0 in /  50.8 mm
11:07 9.2 °F /  -12.7 °C 8.3 °F /  -13.2 °C 996.8 in /  33751.6 hPa South 13.0 mph /  20.9 km/h 20.6 mph /  33.2 km/h 94 % 2.0 in /  50.8 mm
11:12 9.3 °F /  -12.6 °C 8.4 °F /  -13.1 °C 996.8 in /  33751.6 hPa SSW 24.8 mph /  39.9 km/h 26.7 mph /  43 km/h 94 % 2.5 in /  63.5 mm
11:17 9.3 °F /  -12.6 °C 8.6 °F /  -13 °C 996.8 in /  33751.6 hPa South 22.4 mph /  36 km/h 32.0 mph /  51.5 km/h 95 % 2.5 in /  63.5 mm
11:22 9.3 °F /  -12.6 °C 8.6 °F /  -13 °C 996.2 in /  33731.3 hPa SSW 29.9 mph /  48.1 km/h 32.0 mph /  51.5 km/h 95 % 2.5 in /  63.5 mm
11:27 9.3 °F /  -12.6 °C 8.6 °F /  -13 °C 996.2 in /  33731.3 hPa South 20.9 mph /  33.6 km/h 29.9 mph /  48.1 km/h 95 % 2.8 in /  71.12 mm
11:32 9.3 °F /  -12.6 °C 8.7 °F /  -12.9 °C 996.2 in /  33731.3 hPa South 24.8 mph /  39.9 km/h 30.6 mph /  49.2 km/h 96 % 2.8 in /  71.12 mm
11:37 9.3 °F /  -12.6 °C 8.7 °F /  -12.9 °C 995.1 in /  33694.1 hPa South 16.9 mph /  27.2 km/h 30.6 mph /  49.2 km/h 96 % 3.0 in /  76.2 mm
11:42 9.3 °F /  -12.6 °C 8.7 °F /  -12.9 °C 995.1 in /  33694.1 hPa SSW 17.7 mph /  28.5 km/h 28.0 mph /  45.1 km/h 96 % 3.0 in /  76.2 mm
11:47 9.3 °F /  -12.6 °C 8.7 °F /  -12.9 °C 995.1 in /  33694.1 hPa SSE 20.6 mph /  33.2 km/h 27.0 mph /  43.5 km/h 96 % 3.0 in /  76.2 mm
11:52 9.2 °F /  -12.7 °C 8.6 °F /  -13 °C 994.1 in /  33660.2 hPa SSE 20.6 mph /  33.2 km/h 20.6 mph /  33.2 km/h 96 % 3.0 in /  76.2 mm
11:57 9.2 °F /  -12.7 °C 8.6 °F /  -13 °C 994.1 in /  33660.2 hPa South 19.5 mph /  31.4 km/h 20.6 mph /  33.2 km/h 96 % 2.5 in /  63.5 mm
12:02 9.2 °F /  -12.7 °C 8.6 °F /  -13 °C 994.1 in /  33660.2 hPa SSW 12.6 mph /  20.3 km/h 20.6 mph /  33.2 km/h 96 % 2.3 in /  58.42 mm
12:07 9.2 °F /  -12.7 °C 8.6 °F /  -13 °C 995.1 in /  33694.1 hPa South 14.0 mph /  22.5 km/h 19.5 mph /  31.4 km/h 96 % 2.3 in /  58.42 mm
12:12 9.2 °F /  -12.7 °C 8.6 °F /  -13 °C 995.1 in /  33694.1 hPa SSW 17.2 mph /  27.7 km/h 24.5 mph /  39.4 km/h 96 % 2.3 in /  58.42 mm
12:17 9.2 °F /  -12.7 °C 8.6 °F /  -13 °C 995.1 in /  33694.1 hPa South 17.7 mph /  28.5 km/h 24.5 mph /  39.4 km/h 96 % 2.3 in /  58.42 mm
12:22 9.2 °F /  -12.7 °C 8.6 °F /  -13 °C 994.1 in /  33660.2 hPa SSW 8.7 mph /  14 km/h 20.9 mph /  33.6 km/h 96 % 2.3 in /  58.42 mm
12:27 9.2 °F /  -12.7 °C 8.6 °F /  -13 °C 994.1 in /  33660.2 hPa SSW 13.7 mph /  22 km/h 21.6 mph /  34.8 km/h 96 % 2.3 in /  58.42 mm
12:32 9.2 °F /  -12.7 °C 8.8 °F /  -12.9 °C 994.1 in /  33660.2 hPa SSW 16.9 mph /  27.2 km/h 21.6 mph /  34.8 km/h 97 % 2.3 in /  58.42 mm
12:37 9.2 °F /  -12.7 °C 8.8 °F /  -12.9 °C 994.1 in /  33660.2 hPa South 14.0 mph /  22.5 km/h 19.8 mph /  31.9 km/h 97 % 2.3 in /  58.42 mm
12:42 9.2 °F /  -12.7 °C 8.8 °F /  -12.9 °C 994.1 in /  33660.2 hPa South 13.0 mph /  20.9 km/h 20.6 mph /  33.2 km/h 97 % 2.5 in /  63.5 mm
12:47 9.3 °F /  -12.6 °C 8.8 °F /  -12.9 °C 994.1 in /  33660.2 hPa SSW 21.2 mph /  34.1 km/h 22.7 mph /  36.5 km/h 97 % 2.8 in /  71.12 mm
12:48 9.3 °F /  -12.6 °C 8.8 °F /  -12.9 °C 994.1 in /  33660.2 hPa South 19.8 mph /  31.9 km/h 22.7 mph /  36.5 km/h 97 % 2.8 in /  71.12 mm
12:53 9.3 °F /  -12.6 °C 8.8 °F /  -12.9 °C 993.1 in /  33626.4 hPa South 15.8 mph /  25.4 km/h 23.3 mph /  37.5 km/h 97 % 3.3 in /  83.82 mm
12:58 9.4 °F /  -12.6 °C 8.9 °F /  -12.8 °C 993.1 in /  33626.4 hPa SSW 17.2 mph /  27.7 km/h 23.3 mph /  37.5 km/h 97 % 3.3 in /  83.82 mm
13:03 9.4 °F /  -12.6 °C 8.9 °F /  -12.8 °C 993.1 in /  33626.4 hPa SSW 10.5 mph /  16.9 km/h 21.9 mph /  35.2 km/h 97 % 3.3 in /  83.82 mm
13:08 9.4 °F /  -12.6 °C 8.9 °F /  -12.8 °C 993.1 in /  33626.4 hPa SSW 16.6 mph /  26.7 km/h 28.0 mph /  45.1 km/h 97 % 3.3 in /  83.82 mm
13:13 9.5 °F /  -12.5 °C 9.1 °F /  -12.7 °C 993.1 in /  33626.4 hPa SSW 11.9 mph /  19.2 km/h 28.0 mph /  45.1 km/h 97 % 3.6 in /  91.44 mm
13:18 9.5 °F /  -12.5 °C 9.1 °F /  -12.7 °C 993.1 in /  33626.4 hPa SW 16.6 mph /  26.7 km/h 21.6 mph /  34.8 km/h 97 % 3.8 in /  96.52 mm
13:23 9.5 °F /  -12.5 °C 9.1 °F /  -12.7 °C 992.1 in /  33592.5 hPa South 16.9 mph /  27.2 km/h 23.8 mph /  38.3 km/h 97 % 4.8 in /  121.92 mm
13:28 9.7 °F /  -12.4 °C 9.2 °F /  -12.7 °C 992.1 in /  33592.5 hPa SSW 15.8 mph /  25.4 km/h 27.7 mph /  44.6 km/h 97 % 4.8 in /  121.92 mm
13:33 9.9 °F /  -12.3 °C 9.4 °F /  -12.6 °C 992.1 in /  33592.5 hPa South 16.9 mph /  27.2 km/h 36.7 mph /  59.1 km/h 97 % 4.3 in /  109.22 mm
13:38 9.9 °F /  -12.3 °C 9.4 °F /  -12.6 °C 991.1 in /  33558.6 hPa South 25.3 mph /  40.7 km/h 36.7 mph /  59.1 km/h 97 % 4.3 in /  109.22 mm
13:43 9.7 °F /  -12.4 °C 9.1 °F /  -12.7 °C 991.1 in /  33558.6 hPa South 31.7 mph /  51 km/h 38.9 mph /  62.6 km/h 96 % 3.8 in /  96.52 mm
13:48 9.5 °F /  -12.5 °C 8.3 °F /  -13.2 °C 991.1 in /  33558.6 hPa SSW 16.3 mph /  26.2 km/h 38.9 mph /  62.6 km/h 92 % 3.8 in /  96.52 mm
13:53 9.4 °F /  -12.6 °C 7.5 °F /  -13.6 °C 990.1 in /  33524.8 hPa South 19.8 mph /  31.9 km/h 35.6 mph /  57.3 km/h 88 % 2.8 in /  71.12 mm
13:58 9.3 °F /  -12.6 °C 7.1 °F /  -13.8 °C 990.1 in /  33524.8 hPa WSW 16.9 mph /  27.2 km/h 35.2 mph /  56.6 km/h 86 % 2.5 in /  63.5 mm
14:03 9.2 °F /  -12.7 °C 6.5 °F /  -14.2 °C 990.1 in /  33524.8 hPa South 20.6 mph /  33.2 km/h 41.7 mph /  67.1 km/h 83 % 2.5 in /  63.5 mm
14:08 9.0 °F /  -12.8 °C 6.3 °F /  -14.3 °C 991.1 in /  33558.6 hPa SSW 13.0 mph /  20.9 km/h 41.7 mph /  67.1 km/h 83 % 2.3 in /  58.42 mm
14:13 8.8 °F /  -12.9 °C 6.1 °F /  -14.4 °C 991.1 in /  33558.6 hPa SSW 19.1 mph /  30.7 km/h 36.4 mph /  58.6 km/h 83 % 1.8 in /  45.72 mm
14:18 8.6 °F /  -13 °C 6.1 °F /  -14.4 °C 991.1 in /  33558.6 hPa SSW 31.4 mph /  50.5 km/h 36.4 mph /  58.6 km/h 84 % 1.0 in /  25.4 mm
14:23 8.5 °F /  -13.1 °C 6.2 °F /  -14.3 °C 991.1 in /  33558.6 hPa SSW 16.6 mph /  26.7 km/h 31.4 mph /  50.5 km/h 85 % 0.3 in /  7.62 mm
14:28 8.4 °F /  -13.1 °C 6.2 °F /  -14.3 °C 991.1 in /  33558.6 hPa South 15.1 mph /  24.3 km/h 29.9 mph /  48.1 km/h 86 % 0.0 in /  0 mm
14:33 8.4 °F /  -13.1 °C 6.2 °F /  -14.3 °C 991.1 in /  33558.6 hPa SSW 16.9 mph /  27.2 km/h 39.3 mph /  63.2 km/h 86 % 0.0 in /  0 mm
14:38 8.4 °F /  -13.1 °C 6.4 °F /  -14.2 °C 989.1 in /  33490.9 hPa SSW 10.5 mph /  16.9 km/h 39.3 mph /  63.2 km/h 87 % 0.3 in /  7.62 mm
14:43 8.5 °F /  -13.1 °C 6.5 °F /  -14.2 °C 989.1 in /  33490.9 hPa SSW 12.2 mph /  19.6 km/h 26.2 mph /  42.2 km/h 87 % 0.3 in /  7.62 mm
14:48 8.6 °F /  -13 °C 6.6 °F /  -14.1 °C 989.1 in /  33490.9 hPa SSW 16.6 mph /  26.7 km/h 26.2 mph /  42.2 km/h 87 % 0.3 in /  7.62 mm
14:53 8.6 °F /  -13 °C 6.6 °F /  -14.1 °C 989.1 in /  33490.9 hPa SSW 8.7 mph /  14 km/h 21.2 mph /  34.1 km/h 87 % 0.3 in /  7.62 mm
14:58 8.6 °F /  -13 °C 6.4 °F /  -14.2 °C 989.1 in /  33490.9 hPa SSW 13.0 mph /  20.9 km/h 24.8 mph /  39.9 km/h 86 % 0.3 in /  7.62 mm
15:03 8.7 °F /  -12.9 °C 6.5 °F /  -14.2 °C 989.1 in /  33490.9 hPa SSW 16.6 mph /  26.7 km/h 24.8 mph /  39.9 km/h 86 % 0.3 in /  7.62 mm
15:08 8.9 °F /  -12.8 °C 6.6 °F /  -14.1 °C 989.1 in /  33490.9 hPa SSW 12.6 mph /  20.3 km/h 25.6 mph /  41.2 km/h 85 % 0.3 in /  7.62 mm
15:13 9.2 °F /  -12.7 °C 6.8 °F /  -14 °C 989.1 in /  33490.9 hPa SSE 19.8 mph /  31.9 km/h 25.6 mph /  41.2 km/h 85 % 0.3 in /  7.62 mm
15:18 9.7 °F /  -12.4 °C 7.3 °F /  -13.7 °C 989.1 in /  33490.9 hPa SW 21.2 mph /  34.1 km/h 24.5 mph /  39.4 km/h 85 % 0.3 in /  7.62 mm
15:23 9.7 °F /  -12.4 °C 7.1 °F /  -13.8 °C 989.1 in /  33490.9 hPa SSW 22.7 mph /  36.5 km/h 31.4 mph /  50.5 km/h 84 % 0.3 in /  7.62 mm
15:28 9.7 °F /  -12.4 °C 6.9 °F /  -13.9 °C 989.1 in /  33490.9 hPa SSW 16.6 mph /  26.7 km/h 31.4 mph /  50.5 km/h 83 % 0.3 in /  7.62 mm
15:33 9.6 °F /  -12.4 °C 6.8 °F /  -14 °C 989.1 in /  33490.9 hPa SW 24.8 mph /  39.9 km/h 28.0 mph /  45.1 km/h 83 % 0.3 in /  7.62 mm
15:38 9.3 °F /  -12.6 °C 6.9 °F /  -13.9 °C 989.1 in /  33490.9 hPa WSW 27.4 mph /  44.1 km/h 28.0 mph /  45.1 km/h 85 % 0.3 in /  7.62 mm
15:43 9.1 °F /  -12.7 °C 7.1 °F /  -13.8 °C 989.1 in /  33490.9 hPa SW 37.5 mph /  60.3 km/h 42.8 mph /  68.9 km/h 87 % 0.8 in /  20.32 mm
15:48 8.9 °F /  -12.8 °C 6.9 °F /  -13.9 °C 989.1 in /  33490.9 hPa WSW 36.0 mph /  57.9 km/h 52.1 mph /  83.8 km/h 87 % 0.8 in /  20.32 mm
15:53 8.8 °F /  -12.9 °C 6.9 °F /  -13.9 °C 989.1 in /  33490.9 hPa WSW 24.8 mph /  39.9 km/h 52.1 mph /  83.8 km/h 88 % 1.3 in /  33.02 mm
15:58 8.6 °F /  -13 °C 6.7 °F /  -14.1 °C 989.1 in /  33490.9 hPa WSW 31.4 mph /  50.5 km/h 36.4 mph /  58.6 km/h 88 % 1.3 in /  33.02 mm
16:03 8.4 °F /  -13.1 °C 6.2 °F /  -14.3 °C 989.1 in /  33490.9 hPa SSW 16.6 mph /  26.7 km/h 37.5 mph /  60.3 km/h 86 % 1.3 in /  33.02 mm
16:08 8.3 °F /  -13.2 °C 6.3 °F /  -14.3 °C 989.1 in /  33490.9 hPa SW 17.7 mph /  28.5 km/h 37.5 mph /  60.3 km/h 87 % 1.3 in /  33.02 mm
16:13 8.2 °F /  -13.2 °C 6.2 °F /  -14.3 °C 989.1 in /  33490.9 hPa SSW 20.9 mph /  33.6 km/h 28.0 mph /  45.1 km/h 87 % 1.3 in /  33.02 mm
16:18 8.1 °F /  -13.3 °C 6.1 °F /  -14.4 °C 989.1 in /  33490.9 hPa WSW 22.4 mph /  36 km/h 30.9 mph /  49.7 km/h 87 % 1.3 in /  33.02 mm
16:23 8.1 °F /  -13.3 °C 5.8 °F /  -14.6 °C 989.1 in /  33490.9 hPa SSW 17.2 mph /  27.7 km/h 31.7 mph /  51 km/h 86 % 1.3 in /  33.02 mm
16:28 7.9 °F /  -13.4 °C 5.7 °F /  -14.6 °C 989.1 in /  33490.9 hPa SW 19.5 mph /  31.4 km/h 31.7 mph /  51 km/h 86 % 1.3 in /  33.02 mm
16:33 7.9 °F /  -13.4 °C 5.7 °F /  -14.6 °C 989.1 in /  33490.9 hPa SW 20.6 mph /  33.2 km/h 28.5 mph /  45.9 km/h 86 % 1.3 in /  33.02 mm
16:38 7.9 °F /  -13.4 °C 5.9 °F /  -14.5 °C 989.1 in /  33490.9 hPa SSW 16.6 mph /  26.7 km/h 28.5 mph /  45.9 km/h 87 % 0.5 in /  12.7 mm
16:43 8.1 °F /  -13.3 °C 6.3 °F /  -14.3 °C 989.1 in /  33490.9 hPa SW 20.6 mph /  33.2 km/h 20.9 mph /  33.6 km/h 88 % 0.8 in /  20.32 mm
16:48 8.1 °F /  -13.3 °C 6.3 °F /  -14.3 °C 989.1 in /  33490.9 hPa SSW 16.6 mph /  26.7 km/h 20.6 mph /  33.2 km/h 88 % 0.8 in /  20.32 mm
16:53 8.2 °F /  -13.2 °C 6.4 °F /  -14.2 °C 988.0 in /  33453.7 hPa WSW 16.9 mph /  27.2 km/h 20.6 mph /  33.2 km/h 88 % 0.3 in /  7.62 mm
16:58 8.3 °F /  -13.2 °C 6.3 °F /  -14.3 °C 988.0 in /  33453.7 hPa WSW 20.1 mph /  32.3 km/h 21.2 mph /  34.1 km/h 87 % 0.3 in /  7.62 mm
17:03 8.4 °F /  -13.1 °C 6.4 °F /  -14.2 °C 988.0 in /  33453.7 hPa WSW 17.2 mph /  27.7 km/h 23.3 mph /  37.5 km/h 87 % 0.3 in /  7.62 mm
17:08 8.5 °F /  -13.1 °C 6.3 °F /  -14.3 °C 988.0 in /  33453.7 hPa SSW 14.0 mph /  22.5 km/h 23.3 mph /  37.5 km/h 86 % 0.3 in /  7.62 mm
17:13 8.5 °F /  -13.1 °C 6.3 °F /  -14.3 °C 988.0 in /  33453.7 hPa SSW 14.0 mph /  22.5 km/h 22.4 mph /  36 km/h 86 % 0.3 in /  7.62 mm
17:18 8.5 °F /  -13.1 °C 6.2 °F /  -14.3 °C 988.0 in /  33453.7 hPa SW 16.3 mph /  26.2 km/h 21.2 mph /  34.1 km/h 85 % 0.3 in /  7.62 mm
17:23 8.4 °F /  -13.1 °C 6.1 °F /  -14.4 °C 989.1 in /  33490.9 hPa WSW 10.5 mph /  16.9 km/h 27.7 mph /  44.6 km/h 85 % 0.3 in /  7.62 mm
17:28 8.4 °F /  -13.1 °C 6.1 °F /  -14.4 °C 989.1 in /  33490.9 hPa SSW 16.6 mph /  26.7 km/h 27.7 mph /  44.6 km/h 85 % 0.3 in /  7.62 mm
17:33 8.5 °F /  -13.1 °C 6.2 °F /  -14.3 °C 989.1 in /  33490.9 hPa SW 15.8 mph /  25.4 km/h 25.9 mph /  41.7 km/h 85 % 0.3 in /  7.62 mm
17:38 8.5 °F /  -13.1 °C 6.2 °F /  -14.3 °C 988.0 in /  33453.7 hPa SSW 16.6 mph /  26.7 km/h 32.3 mph /  52 km/h 85 % 0.3 in /  7.62 mm
17:43 8.5 °F /  -13.1 °C 6.2 °F /  -14.3 °C 988.0 in /  33453.7 hPa SSW 16.3 mph /  26.2 km/h 32.3 mph /  52 km/h 85 % 0.0 in /  0 mm
17:48 8.3 °F /  -13.2 °C 5.9 °F /  -14.5 °C 988.0 in /  33453.7 hPa WSW 47.1 mph /  75.8 km/h 47.1 mph /  75.8 km/h 85 % 0.0 in /  0 mm
17:53 7.7 °F /  -13.5 °C 5.1 °F /  -14.9 °C 989.1 in /  33490.9 hPa WSW 32.0 mph /  51.5 km/h 47.1 mph /  75.8 km/h 83 % 0.3 in /  7.62 mm
17:58 7.2 °F /  -13.8 °C 4.6 °F /  -15.2 °C 989.1 in /  33490.9 hPa WSW 29.1 mph /  46.8 km/h 47.1 mph /  75.8 km/h 84 % 0.3 in /  7.62 mm
18:03 6.8 °F /  -14 °C 4.5 °F /  -15.3 °C 989.1 in /  33490.9 hPa WSW 24.8 mph /  39.9 km/h 32.0 mph /  51.5 km/h 85 % 0.3 in /  7.62 mm
18:08 6.7 °F /  -14.1 °C 4.7 °F /  -15.2 °C 989.1 in /  33490.9 hPa SW 29.1 mph /  46.8 km/h 33.8 mph /  54.4 km/h 87 % 0.3 in /  7.62 mm
18:13 6.6 °F /  -14.1 °C 4.6 °F /  -15.2 °C 989.1 in /  33490.9 hPa WSW 24.5 mph /  39.4 km/h 33.8 mph /  54.4 km/h 87 % 0.3 in /  7.62 mm
18:18 6.4 °F /  -14.2 °C 4.4 °F /  -15.3 °C 989.1 in /  33490.9 hPa WSW 22.4 mph /  36 km/h 29.9 mph /  48.1 km/h 87 % 0.3 in /  7.62 mm
18:23 6.4 °F /  -14.2 °C 4.4 °F /  -15.3 °C 988.0 in /  33453.7 hPa SW 23.3 mph /  37.5 km/h 29.9 mph /  48.1 km/h 87 % 0.3 in /  7.62 mm
18:28 6.3 °F /  -14.3 °C 4.4 °F /  -15.3 °C 988.0 in /  33453.7 hPa SW 28.0 mph /  45.1 km/h 28.0 mph /  45.1 km/h 88 % 0.3 in /  7.62 mm
18:33 6.3 °F /  -14.3 °C 4.4 °F /  -15.3 °C 988.0 in /  33453.7 hPa WSW 20.9 mph /  33.6 km/h 28.0 mph /  45.1 km/h 88 % 0.5 in /  12.7 mm
18:38 6.3 °F /  -14.3 °C 4.4 °F /  -15.3 °C 988.0 in /  33453.7 hPa SW 26.2 mph /  42.2 km/h 26.2 mph /  42.2 km/h 88 % 0.5 in /  12.7 mm
18:43 6.4 °F /  -14.2 °C 4.5 °F /  -15.3 °C 988.0 in /  33453.7 hPa SW 19.8 mph /  31.9 km/h 27.7 mph /  44.6 km/h 88 % 0.5 in /  12.7 mm
18:48 6.4 °F /  -14.2 °C 4.5 °F /  -15.3 °C 988.0 in /  33453.7 hPa WSW 18.0 mph /  29 km/h 28.5 mph /  45.9 km/h 88 % 0.5 in /  12.7 mm
18:53 6.4 °F /  -14.2 °C 4.5 °F /  -15.3 °C 989.1 in /  33490.9 hPa WSW 20.1 mph /  32.3 km/h 28.5 mph /  45.9 km/h 88 % 0.3 in /  7.62 mm
18:58 6.4 °F /  -14.2 °C 4.5 °F /  -15.3 °C 989.1 in /  33490.9 hPa WSW 17.2 mph /  27.7 km/h 25.9 mph /  41.7 km/h 88 % 0.3 in /  7.62 mm
19:03 6.4 °F /  -14.2 °C 4.4 °F /  -15.3 °C 989.1 in /  33490.9 hPa WSW 23.8 mph /  38.3 km/h 30.2 mph /  48.6 km/h 87 % 0.3 in /  7.62 mm
19:08 6.6 °F /  -14.1 °C 4.6 °F /  -15.2 °C 989.1 in /  33490.9 hPa WSW 27.4 mph /  44.1 km/h 30.6 mph /  49.2 km/h 87 % 0.3 in /  7.62 mm
19:13 6.6 °F /  -14.1 °C 4.4 °F /  -15.3 °C 989.1 in /  33490.9 hPa SW 18.0 mph /  29 km/h 32.0 mph /  51.5 km/h 86 % 0.3 in /  7.62 mm
19:18 6.4 °F /  -14.2 °C 4.1 °F /  -15.5 °C 989.1 in /  33490.9 hPa WSW 23.0 mph /  37 km/h 37.5 mph /  60.3 km/h 85 % 0.3 in /  7.62 mm
19:23 6.4 °F /  -14.2 °C 3.3 °F /  -15.9 °C 989.1 in /  33490.9 hPa WSW 30.2 mph /  48.6 km/h 37.5 mph /  60.3 km/h 80 % 0.3 in /  7.62 mm
19:28 6.4 °F /  -14.2 °C 3.0 °F /  -16.1 °C 989.1 in /  33490.9 hPa SW 26.7 mph /  43 km/h 42.5 mph /  68.4 km/h 79 % 0.3 in /  7.62 mm
19:33 6.4 °F /  -14.2 °C 2.6 °F /  -16.3 °C 989.1 in /  33490.9 hPa WSW 23.0 mph /  37 km/h 42.5 mph /  68.4 km/h 77 % 0.0 in /  0 mm
19:38 6.4 °F /  -14.2 °C 2.8 °F /  -16.2 °C 989.1 in /  33490.9 hPa WSW 36.4 mph /  58.6 km/h 38.1 mph /  61.3 km/h 78 % 0.0 in /  0 mm
19:43 6.3 °F /  -14.3 °C 2.7 °F /  -16.3 °C 989.1 in /  33490.9 hPa West 29.9 mph /  48.1 km/h 37.0 mph /  59.5 km/h 78 % 0.0 in /  0 mm
19:48 6.4 °F /  -14.2 °C 2.8 °F /  -16.2 °C 989.1 in /  33490.9 hPa WSW 29.1 mph /  46.8 km/h 44.6 mph /  71.8 km/h 78 % 0.0 in /  0 mm
19:53 6.4 °F /  -14.2 °C 2.8 °F /  -16.2 °C 988.0 in /  33453.7 hPa WSW 36.0 mph /  57.9 km/h 44.6 mph /  71.8 km/h 78 % 0.0 in /  0 mm
19:58 6.4 °F /  -14.2 °C 2.9 °F /  -16.2 °C 988.0 in /  33453.7 hPa WSW 23.8 mph /  38.3 km/h 36.0 mph /  57.9 km/h 78 % 0.0 in /  0 mm
20:03 6.4 °F /  -14.2 °C 2.8 °F /  -16.2 °C 988.0 in /  33453.7 hPa WSW 19.8 mph /  31.9 km/h 36.0 mph /  57.9 km/h 78 % 0.0 in /  0 mm
20:08 6.3 °F /  -14.3 °C 2.7 °F /  -16.3 °C 989.1 in /  33490.9 hPa SW 22.4 mph /  36 km/h 32.0 mph /  51.5 km/h 78 % 0.0 in /  0 mm
20:13 6.3 °F /  -14.3 °C 2.6 °F /  -16.3 °C 989.1 in /  33490.9 hPa WSW 20.6 mph /  33.2 km/h 31.7 mph /  51 km/h 77 % 0.0 in /  0 mm
20:18 6.3 °F /  -14.3 °C 2.7 °F /  -16.3 °C 989.1 in /  33490.9 hPa WSW 24.8 mph /  39.9 km/h 28.5 mph /  45.9 km/h 78 % 0.0 in /  0 mm
20:23 6.3 °F /  -14.3 °C 2.9 °F /  -16.2 °C 989.1 in /  33490.9 hPa WSW 27.7 mph /  44.6 km/h 29.9 mph /  48.1 km/h 79 % 0.0 in /  0 mm
20:28 6.2 °F /  -14.3 °C 2.8 °F /  -16.2 °C 989.1 in /  33490.9 hPa WSW 20.6 mph /  33.2 km/h 31.4 mph /  50.5 km/h 79 % 0.0 in /  0 mm
20:33 6.2 °F /  -14.3 °C 3.0 °F /  -16.1 °C 989.1 in /  33490.9 hPa WSW 24.5 mph /  39.4 km/h 31.4 mph /  50.5 km/h 80 % 0.0 in /  0 mm
20:38 6.2 °F /  -14.3 °C 3.0 °F /  -16.1 °C 989.1 in /  33490.9 hPa SW 24.5 mph /  39.4 km/h 32.3 mph /  52 km/h 80 % 0.0 in /  0 mm
20:43 6.2 °F /  -14.3 °C 3.0 °F /  -16.1 °C 989.1 in /  33490.9 hPa SW 22.4 mph /  36 km/h 37.5 mph /  60.3 km/h 80 % 0.0 in /  0 mm
20:48 6.3 °F /  -14.3 °C 2.9 °F /  -16.2 °C 989.1 in /  33490.9 hPa WSW 24.8 mph /  39.9 km/h 37.5 mph /  60.3 km/h 79 % 0.0 in /  0 mm
20:53 6.2 °F /  -14.3 °C 2.8 °F /  -16.2 °C 988.0 in /  33453.7 hPa SW 24.5 mph /  39.4 km/h 28.0 mph /  45.1 km/h 79 % 0.0 in /  0 mm
20:58 6.1 °F /  -14.4 °C 2.7 °F /  -16.3 °C 988.0 in /  33453.7 hPa WSW 28.5 mph /  45.9 km/h 28.5 mph /  45.9 km/h 79 % 0.0 in /  0 mm
21:03 6.0 °F /  -14.4 °C 2.8 °F /  -16.2 °C 988.0 in /  33453.7 hPa WSW 16.3 mph /  26.2 km/h 28.5 mph /  45.9 km/h 80 % 0.0 in /  0 mm
21:08 6.0 °F /  -14.4 °C 2.8 °F /  -16.2 °C 989.1 in /  33490.9 hPa WSW 16.3 mph /  26.2 km/h 27.0 mph /  43.5 km/h 80 % 0.0 in /  0 mm
21:13 6.1 °F /  -14.4 °C 2.9 °F /  -16.2 °C 989.1 in /  33490.9 hPa SW 20.9 mph /  33.6 km/h 27.0 mph /  43.5 km/h 80 % 0.0 in /  0 mm
21:18 6.2 °F /  -14.3 °C 3.0 °F /  -16.1 °C 989.1 in /  33490.9 hPa SSW 20.9 mph /  33.6 km/h 24.8 mph /  39.9 km/h 80 % 0.0 in /  0 mm
21:23 6.2 °F /  -14.3 °C 3.0 °F /  -16.1 °C 990.1 in /  33524.8 hPa SW 13.7 mph /  22 km/h 23.3 mph /  37.5 km/h 80 % 0.0 in /  0 mm
21:28 6.1 °F /  -14.4 °C 3.1 °F /  -16.1 °C 990.1 in /  33524.8 hPa SW 16.9 mph /  27.2 km/h 23.3 mph /  37.5 km/h 81 % 0.0 in /  0 mm
21:33 6.1 °F /  -14.4 °C 3.1 °F /  -16.1 °C 990.1 in /  33524.8 hPa SSW 13.0 mph /  20.9 km/h 23.8 mph /  38.3 km/h 81 % 0.0 in /  0 mm
21:38 6.1 °F /  -14.4 °C 3.1 °F /  -16.1 °C 989.1 in /  33490.9 hPa SSW 20.6 mph /  33.2 km/h 23.8 mph /  38.3 km/h 81 % 0.0 in /  0 mm
21:43 6.1 °F /  -14.4 °C 3.2 °F /  -16 °C 989.1 in /  33490.9 hPa SW 16.6 mph /  26.7 km/h 20.9 mph /  33.6 km/h 82 % 0.0 in /  0 mm
21:48 6.0 °F /  -14.4 °C 3.1 °F /  -16.1 °C 989.1 in /  33490.9 hPa SSW 17.2 mph /  27.7 km/h 23.8 mph /  38.3 km/h 82 % 0.0 in /  0 mm
21:53 6.0 °F /  -14.4 °C 3.1 °F /  -16.1 °C 989.1 in /  33490.9 hPa WSW 20.6 mph /  33.2 km/h 27.7 mph /  44.6 km/h 82 % 0.0 in /  0 mm
21:58 5.3 °F /  -14.8 °C 2.3 °F /  -16.5 °C 989.1 in /  33490.9 hPa West 20.6 mph /  33.2 km/h 43.6 mph /  70.2 km/h 81 % 0.0 in /  0 mm
22:03 4.6 °F /  -15.2 °C 2.1 °F /  -16.6 °C 989.1 in /  33490.9 hPa WSW 25.3 mph /  40.7 km/h 43.6 mph /  70.2 km/h 84 % 0.3 in /  7.62 mm
22:04 4.6 °F /  -15.2 °C 2.1 °F /  -16.6 °C 989.1 in /  33490.9 hPa WSW 25.3 mph /  40.7 km/h 43.6 mph /  70.2 km/h 84 % 0.3 in /  7.62 mm
22:09 4.3 °F /  -15.4 °C 2.5 °F /  -16.4 °C 989.1 in /  33490.9 hPa WSW 24.8 mph /  39.9 km/h 37.0 mph /  59.5 km/h 88 % 0.3 in /  7.62 mm
22:14 4.2 °F /  -15.4 °C 2.9 °F /  -16.2 °C 989.1 in /  33490.9 hPa WSW 24.8 mph /  39.9 km/h 33.5 mph /  53.9 km/h 91 % 1.0 in /  25.4 mm
22:19 4.1 °F /  -15.5 °C 3.1 °F /  -16.1 °C 989.1 in /  33490.9 hPa WSW 24.8 mph /  39.9 km/h 24.8 mph /  39.9 km/h 93 % 1.0 in /  25.4 mm
22:24 3.8 °F /  -15.7 °C 2.9 °F /  -16.2 °C 989.1 in /  33490.9 hPa WSW 24.8 mph /  39.9 km/h 24.8 mph /  39.9 km/h 94 % 1.0 in /  25.4 mm
22:29 3.6 °F /  -15.8 °C 2.8 °F /  -16.2 °C 989.1 in /  33490.9 hPa WSW 24.8 mph /  39.9 km/h 24.8 mph /  39.9 km/h 94 % 1.0 in /  25.4 mm
22:34 3.4 °F /  -15.9 °C 2.7 °F /  -16.3 °C 989.1 in /  33490.9 hPa WSW 24.8 mph /  39.9 km/h 24.8 mph /  39.9 km/h 95 % 1.0 in /  25.4 mm
22:39 3.4 °F /  -15.9 °C 2.7 °F /  -16.3 °C 989.1 in /  33490.9 hPa West 23.8 mph /  38.3 km/h 23.8 mph /  38.3 km/h 95 % 3.0 in /  76.2 mm
22:44 3.4 °F /  -15.9 °C 2.8 °F /  -16.2 °C 989.1 in /  33490.9 hPa WSW 25.9 mph /  41.7 km/h 35.2 mph /  56.6 km/h 96 % 3.0 in /  76.2 mm
22:49 3.4 °F /  -15.9 °C 2.8 °F /  -16.2 °C 989.1 in /  33490.9 hPa WSW 14.0 mph /  22.5 km/h 35.2 mph /  56.6 km/h 96 % 3.0 in /  76.2 mm
22:54 3.3 °F /  -15.9 °C 2.8 °F /  -16.2 °C 989.1 in /  33490.9 hPa SSW 16.6 mph /  26.7 km/h 25.9 mph /  41.7 km/h 96 % 3.0 in /  76.2 mm
22:59 3.3 °F /  -15.9 °C 2.8 °F /  -16.2 °C 989.1 in /  33490.9 hPa SSW 20.6 mph /  33.2 km/h 23.0 mph /  37 km/h 96 % 2.8 in /  71.12 mm
23:04 3.2 °F /  -16 °C 2.7 °F /  -16.3 °C 989.1 in /  33490.9 hPa WSW 16.3 mph /  26.2 km/h 23.0 mph /  37 km/h 96 % 2.8 in /  71.12 mm
23:09 3.2 °F /  -16 °C 2.7 °F /  -16.3 °C 989.1 in /  33490.9 hPa SW 12.2 mph /  19.6 km/h 20.6 mph /  33.2 km/h 96 % 2.8 in /  71.12 mm
23:14 3.2 °F /  -16 °C 2.7 °F /  -16.3 °C 989.1 in /  33490.9 hPa SW 9.3 mph /  15 km/h 17.7 mph /  28.5 km/h 96 % 2.0 in /  50.8 mm
23:19 3.2 °F /  -16 °C 2.8 °F /  -16.2 °C 989.1 in /  33490.9 hPa SW 6.4 mph /  10.3 km/h 17.7 mph /  28.5 km/h 97 % 2.0 in /  50.8 mm
23:24 3.2 °F /  -16 °C 2.8 °F /  -16.2 °C 989.1 in /  33490.9 hPa SSW 10.1 mph /  16.3 km/h 17.7 mph /  28.5 km/h 97 % 2.0 in /  50.8 mm
23:29 3.2 °F /  -16 °C 2.8 °F /  -16.2 °C 989.1 in /  33490.9 hPa SSW 16.6 mph /  26.7 km/h 17.7 mph /  28.5 km/h 97 % 2.0 in /  50.8 mm
23:34 3.3 °F /  -15.9 °C 2.9 °F /  -16.2 °C 989.1 in /  33490.9 hPa SSW 10.5 mph /  16.9 km/h 17.7 mph /  28.5 km/h 97 % 2.0 in /  50.8 mm
23:39 3.6 °F /  -15.8 °C 3.1 °F /  -16.1 °C 989.1 in /  33490.9 hPa SSW 23.3 mph /  37.5 km/h 23.3 mph /  37.5 km/h 97 % 0.0 in /  0 mm
23:44 3.6 °F /  -15.8 °C 3.2 °F /  -16 °C 989.1 in /  33490.9 hPa SSW 27.7 mph /  44.6 km/h 27.7 mph /  44.6 km/h 97 % 0.0 in /  0 mm
23:49 3.8 °F /  -15.7 °C 3.6 °F /  -15.8 °C 989.1 in /  33490.9 hPa SSW 20.1 mph /  32.3 km/h 27.7 mph /  44.6 km/h 98 % 0.0 in /  0 mm
23:54 4.0 °F /  -15.6 °C 3.6 °F /  -15.8 °C 989.1 in /  33490.9 hPa SSW 18.0 mph /  29 km/h 23.3 mph /  37.5 km/h 97 % 0.0 in /  0 mm
23:59 4.2 °F /  -15.4 °C 3.8 °F /  -15.7 °C 989.1 in /  33490.9 hPa WSW 13.0 mph /  20.9 km/h 23.8 mph /  38.3 km/h 97 % 0.3 in /  7.62 mm
Le Gheer Warneton
Courtoisie de Weather Underground - 2.25 mb

Mise a jour : 18/02/2018 20:55:11
Généré par Cumulus 1.9.4 (1099)